Time;durP1;ratioP1;P1;durP2;ratioP2;P2;SDS_P1;SDS_P2;PMS_P1;PMS_P2;Temp;Humidity;BMP_temperature;BMP_pressure;BME280_temperature;BME280_humidity;BME280_pressure;Samples;Min_cycle;Max_cycle;Signal;HPM_P1;HPM_P2
2023/08/20 00:00:38;;;;;;;134.82;128.05;;;23.60;99.90;;;;;;5014695;28;20034;-78
2023/08/20 00:03:10;;;;;;;124.30;117.95;;;23.60;99.90;;;;;;5013726;28;20506;-78
2023/08/20 00:05:37;;;;;;;159.15;151.27;;;23.50;99.90;;;;;;5014948;28;20486;-78
2023/08/20 00:08:04;;;;;;;127.45;120.68;;;23.50;99.90;;;;;;5013987;28;20475;-78
2023/08/20 00:10:30;;;;;;;126.30;119.45;;;23.40;99.90;;;;;;5014919;28;20062;-79
2023/08/20 00:12:57;;;;;;;118.20;111.95;;;23.40;99.90;;;;;;5013820;28;20025;-79
2023/08/20 00:15:26;;;;;;;108.28;102.60;;;23.40;99.90;;;;;;5013425;28;20026;-78
2023/08/20 00:17:53;;;;;;;109.03;103.57;;;23.40;99.90;;;;;;5015081;28;20045;-76
2023/08/20 00:20:19;;;;;;;121.72;115.20;;;23.40;99.90;;;;;;5014844;28;20022;-78
2023/08/20 00:22:46;;;;;;;133.77;127.13;;;23.40;99.90;;;;;;5014655;28;20034;-79
2023/08/20 00:25:13;;;;;;;148.88;141.32;;;23.50;99.90;;;;;;5014684;28;20045;-76
2023/08/20 00:27:40;;;;;;;142.00;134.82;;;23.50;99.90;;;;;;5014909;28;20037;-79
2023/08/20 00:30:08;;;;;;;134.88;128.10;;;23.50;99.90;;;;;;5014408;28;20038;-78
2023/08/20 00:32:35;;;;;;;119.93;113.65;;;23.50;99.90;;;;;;5014612;28;20379;-78
2023/08/20 00:35:02;;;;;;;124.03;117.63;;;23.40;99.90;;;;;;5015226;28;20478;-78
2023/08/20 00:37:29;;;;;;;112.38;106.55;;;23.40;99.90;;;;;;5013983;28;20038;-78
2023/08/20 00:39:55;;;;;;;137.38;130.27;;;23.30;99.90;;;;;;4997115;28;20479;-79
2023/08/20 00:42:21;;;;;;;101.90;96.05;;;23.10;99.90;;;;;;5014413;28;20030;-79
2023/08/20 00:44:47;;;;;;;90.20;85.05;;;22.90;99.90;;;;;;5014675;28;20387;-79
2023/08/20 00:47:13;;;;;;;80.80;76.38;;;22.80;99.90;;;;;;5012773;28;20042;-76
2023/08/20 00:49:40;;;;;;;98.38;92.72;;;22.70;99.90;;;;;;5014746;28;20049;-79
2023/08/20 00:52:08;;;;;;;75.70;71.38;;;22.80;99.90;;;;;;5013628;28;20513;-78
2023/08/20 00:54:34;;;;;;;133.18;126.07;;;22.90;99.90;;;;;;5013274;28;20033;-78
2023/08/20 00:57:01;;;;;;;73.57;69.40;;;23.00;99.90;;;;;;5012776;28;20455;-79
2023/08/20 00:59:27;;;;;;;180.13;170.95;;;22.90;99.90;;;;;;5013169;28;20037;-78
2023/08/20 01:01:53;;;;;;;90.07;85.28;;;22.90;99.90;;;;;;5012378;28;20029;-78
2023/08/20 01:04:19;;;;;;;160.48;152.02;;;23.00;99.90;;;;;;5014238;28;20025;-78
2023/08/20 01:07:00;;;;;;;105.07;99.32;;;23.00;99.90;;;;;;5013637;28;20048;-78
2023/08/20 01:09:51;;;;;;;87.03;82.15;;;23.10;99.90;;;;;;5014103;28;20033;-78
2023/08/20 01:12:18;;;;;;;134.52;127.43;;;23.10;99.90;;;;;;5014153;28;20040;-79
2023/08/20 01:14:44;;;;;;;146.02;138.02;;;23.20;99.90;;;;;;5012913;28;20029;-79
2023/08/20 01:17:10;;;;;;;174.15;165.32;;;23.20;99.90;;;;;;5013394;28;20045;-78
2023/08/20 01:19:36;;;;;;;165.48;156.93;;;23.20;99.90;;;;;;5013723;28;20026;-78
2023/08/20 01:22:11;;;;;;;98.07;92.47;;;23.30;99.90;;;;;;5012396;28;20033;-79
2023/08/20 01:24:45;;;;;;;79.80;75.10;;;23.20;99.90;;;;;;5012738;28;20463;-78
2023/08/20 01:27:28;;;;;;;89.43;84.63;;;23.20;99.90;;;;;;5012326;28;20045;-78
2023/08/20 01:29:55;;;;;;;56.47;53.13;;;23.20;99.90;;;;;;5012619;28;20022;-78
2023/08/20 01:32:22;;;;;;;101.70;95.95;;;23.20;99.90;;;;;;5011799;28;20034;-78
2023/08/20 01:34:48;;;;;;;154.30;146.13;;;23.20;99.90;;;;;;5012199;28;20456;-78
2023/08/20 01:37:14;;;;;;;92.13;86.97;;;23.10;99.90;;;;;;5012353;28;20383;-78
2023/08/20 01:39:40;;;;;;;179.77;170.68;;;23.10;99.90;;;;;;5013519;28;20026;-78
2023/08/20 01:42:07;;;;;;;185.73;176.45;;;23.10;99.90;;;;;;5013302;28;20041;-78
2023/08/20 01:44:33;;;;;;;239.32;227.73;;;23.10;99.90;;;;;;5013475;28;20034;-79
2023/08/20 01:46:59;;;;;;;104.95;99.38;;;23.00;99.90;;;;;;5012992;28;20034;-79
2023/08/20 01:49:25;;;;;;;103.22;97.63;;;23.00;99.90;;;;;;5013080;28;20024;-78
2023/08/20 01:51:51;;;;;;;225.95;214.90;;;23.00;99.90;;;;;;5013061;28;20057;-78
2023/08/20 01:54:17;;;;;;;157.25;149.18;;;23.00;99.90;;;;;;5012403;28;20473;-79
2023/08/20 01:56:43;;;;;;;258.80;245.80;;;23.00;99.90;;;;;;5012381;28;20048;-79
2023/08/20 01:59:10;;;;;;;96.68;91.22;;;22.90;99.90;;;;;;5008742;28;20049;-78
2023/08/20 02:01:36;;;;;;;80.95;76.32;;;22.90;99.90;;;;;;5007652;28;20034;-78
2023/08/20 02:04:02;;;;;;;173.07;163.77;;;22.90;99.90;;;;;;5008691;28;20033;-78
2023/08/20 02:06:28;;;;;;;59.92;56.35;;;22.80;99.90;;;;;;5011742;28;20049;-78
2023/08/20 02:08:54;;;;;;;61.42;57.75;;;22.80;99.90;;;;;;5011513;28;20491;-79
2023/08/20 02:11:21;;;;;;;67.93;64.18;;;22.80;99.90;;;;;;5011289;28;20053;-78
2023/08/20 02:13:47;;;;;;;84.60;79.93;;;22.80;99.90;;;;;;5012111;28;20464;-79
2023/08/20 02:16:13;;;;;;;62.45;58.75;;;22.80;99.90;;;;;;5011026;28;20049;-78
2023/08/20 02:18:39;;;;;;;107.30;101.70;;;22.80;99.90;;;;;;5011440;28;20483;-78
2023/08/20 02:21:05;;;;;;;55.83;52.53;;;22.80;99.90;;;;;;5011718;28;20057;-78
2023/08/20 02:23:31;;;;;;;103.22;97.63;;;22.70;99.90;;;;;;5011647;28;20033;-78
2023/08/20 02:25:57;;;;;;;75.18;70.95;;;22.70;99.90;;;;;;5012036;28;20495;-78
2023/08/20 02:28:24;;;;;;;41.70;38.90;;;22.80;99.90;;;;;;5010327;28;20068;-78
2023/08/20 02:30:50;;;;;;;68.30;64.60;;;22.80;99.90;;;;;;5010739;28;20395;-78
2023/08/20 02:33:16;;;;;;;54.63;51.38;;;22.80;99.90;;;;;;5011300;28;20030;-78
2023/08/20 02:35:42;;;;;;;52.95;49.92;;;22.80;99.90;;;;;;5011455;28;20050;-79
2023/08/20 02:38:09;;;;;;;47.38;44.38;;;22.70;99.90;;;;;;5012671;28;20353;-79
2023/08/20 02:40:40;;;;;;;79.43;74.90;;;22.60;99.90;;;;;;5012584;28;20053;-78
2023/08/20 02:43:06;;;;;;;103.03;97.28;;;22.60;99.90;;;;;;5012734;28;20022;-78
2023/08/20 02:45:32;;;;;;;70.10;66.25;;;22.50;99.90;;;;;;5011894;28;20390;-79
2023/08/20 02:47:59;;;;;;;75.93;71.35;;;22.50;99.90;;;;;;5012305;28;20041;-78
2023/08/20 02:50:25;;;;;;;36.78;34.58;;;22.50;99.90;;;;;;5012180;28;20041;-78
2023/08/20 02:52:51;;;;;;;35.88;33.50;;;22.50;99.90;;;;;;5011295;28;20050;-78
2023/08/20 02:55:17;;;;;;;35.42;32.75;;;22.40;99.90;;;;;;5012376;28;20030;-78
2023/08/20 02:57:43;;;;;;;26.25;24.48;;;22.40;99.90;;;;;;5011368;28;20022;-78
2023/08/20 03:00:13;;;;;;;38.28;35.67;;;22.40;99.90;;;;;;5011829;28;20022;-79
2023/08/20 03:02:41;;;;;;;39.22;36.72;;;22.40;99.90;;;;;;5012047;28;20053;-78
2023/08/20 03:05:10;;;;;;;49.80;46.55;;;22.30;99.90;;;;;;5012490;28;20038;-78
2023/08/20 03:07:36;;;;;;;35.47;32.97;;;22.30;99.90;;;;;;5012308;28;20030;-79
2023/08/20 03:10:05;;;;;;;33.65;31.10;;;22.30;99.90;;;;;;5012280;28;20041;-78
2023/08/20 03:12:32;;;;;;;23.33;21.30;;;22.30;99.90;;;;;;5012070;28;20041;-79
2023/08/20 03:14:59;;;;;;;33.42;30.95;;;22.20;99.90;;;;;;5012516;28;20042;-78
2023/08/20 03:17:25;;;;;;;32.97;30.58;;;22.20;99.90;;;;;;5011179;28;20042;-78
2023/08/20 03:19:58;;;;;;;26.15;23.95;;;22.20;99.90;;;;;;5012642;28;20030;-78
2023/08/20 03:22:24;;;;;;;33.20;30.88;;;22.20;99.90;;;;;;5015977;28;20045;-78
2023/08/20 03:24:51;;;;;;;25.27;23.42;;;22.20;99.90;;;;;;5016022;28;20692;-78
2023/08/20 03:27:17;;;;;;;25.40;23.27;;;22.20;99.90;;;;;;5015940;28;20502;-78
2023/08/20 03:29:43;;;;;;;34.22;31.88;;;22.10;99.90;;;;;;5014014;28;20049;-77
2023/08/20 03:32:10;;;;;;;15.90;14.48;;;22.10;99.90;;;;;;5015067;28;20474;-78
2023/08/20 03:34:36;;;;;;;24.23;22.23;;;22.10;99.90;;;;;;5015966;28;20026;-78
2023/08/20 03:37:02;;;;;;;18.35;16.13;;;22.10;99.90;;;;;;5015734;28;20479;-78
2023/08/20 03:39:28;;;;;;;19.77;14.45;;;22.10;99.90;;;;;;5015815;28;20034;-78
2023/08/20 03:41:54;;;;;;;22.55;20.23;;;22.10;99.90;;;;;;5015589;28;20034;-79
2023/08/20 03:44:21;;;;;;;21.80;19.70;;;22.10;99.90;;;;;;5015335;28;20464;-78
2023/08/20 03:46:47;;;;;;;23.75;21.63;;;22.20;99.90;;;;;;5015265;28;20046;-79
2023/08/20 03:49:13;;;;;;;21.95;19.67;;;22.20;99.90;;;;;;5015732;28;20040;-78
2023/08/20 03:51:40;;;;;;;35.08;32.67;;;22.20;99.90;;;;;;5015083;28;20050;-79
2023/08/20 03:54:06;;;;;;;16.20;14.80;;;22.10;99.90;;;;;;5015849;28;20059;-79
2023/08/20 03:56:33;;;;;;;31.30;29.20;;;22.10;99.90;;;;;;5015460;28;20030;-77
2023/08/20 03:58:59;;;;;;;16.48;14.68;;;22.20;99.90;;;;;;5015153;28;20034;-78
2023/08/20 04:01:25;;;;;;;18.73;17.00;;;22.10;99.90;;;;;;5014841;28;20483;-78
2023/08/20 04:03:51;;;;;;;15.80;14.07;;;22.00;99.90;;;;;;5015522;28;20045;-79
2023/08/20 04:06:17;;;;;;;23.10;21.02;;;22.00;99.90;;;;;;5015368;28;20648;-79
2023/08/20 04:08:43;;;;;;;21.63;19.65;;;22.10;99.90;;;;;;5015487;28;20026;-79
2023/08/20 04:11:09;;;;;;;23.10;21.10;;;22.10;99.90;;;;;;5015058;28;20506;-79
2023/08/20 04:13:35;;;;;;;18.23;16.58;;;22.20;99.90;;;;;;5014896;28;20026;-78
2023/08/20 04:16:01;;;;;;;17.52;15.80;;;22.20;99.90;;;;;;5014579;28;20049;-78
2023/08/20 04:18:27;;;;;;;22.45;20.98;;;22.20;99.90;;;;;;5015174;28;20033;-78
2023/08/20 04:20:54;;;;;;;18.73;16.98;;;22.20;99.90;;;;;;5015002;28;20037;-78
2023/08/20 04:23:20;;;;;;;21.55;19.75;;;22.20;99.90;;;;;;5013343;28;20041;-78
2023/08/20 04:25:46;;;;;;;27.50;25.13;;;22.10;99.90;;;;;;5011158;28;20387;-78
2023/08/20 04:28:12;;;;;;;133.18;126.28;;;22.10;99.90;;;;;;5013326;28;20022;-78
2023/08/20 04:30:38;;;;;;;28.52;26.13;;;22.00;99.90;;;;;;5013743;28;20048;-78
2023/08/20 04:33:05;;;;;;;82.15;77.50;;;22.00;99.90;;;;;;5014771;28;20038;-78
2023/08/20 04:35:31;;;;;;;17.33;15.82;;;22.10;99.90;;;;;;5013520;28;20022;-78
2023/08/20 04:37:57;;;;;;;18.42;16.65;;;22.10;99.90;;;;;;5014826;28;20029;-78
2023/08/20 04:40:23;;;;;;;20.88;18.83;;;22.10;99.90;;;;;;5015077;28;20034;-78
2023/08/20 04:42:50;;;;;;;47.53;44.15;;;22.10;99.90;;;;;;5014216;28;20049;-79
2023/08/20 04:45:19;;;;;;;315.42;297.50;;;22.10;99.90;;;;;;5013286;28;20033;-78
2023/08/20 04:47:45;;;;;;;97.85;92.22;;;22.10;99.90;;;;;;5014006;28;20038;-79
2023/08/20 04:50:13;;;;;;;96.78;91.40;;;22.10;99.90;;;;;;5012912;28;20046;-79
2023/08/20 04:52:39;;;;;;;57.05;53.53;;;22.10;99.90;;;;;;5014237;28;20050;-78
2023/08/20 04:55:09;;;;;;;108.93;103.18;;;22.00;99.90;;;;;;5014516;28;20033;-79
2023/08/20 04:57:35;;;;;;;64.43;60.58;;;22.00;99.90;;;;;;5013676;28;20042;-78
2023/08/20 05:00:01;;;;;;;77.55;73.05;;;22.00;99.90;;;;;;5012782;28;20033;-78
2023/08/20 05:02:27;;;;;;;65.53;61.50;;;21.90;99.90;;;;;;5012420;28;20041;-78
2023/08/20 05:04:53;;;;;;;66.32;62.50;;;21.80;99.90;;;;;;5014376;28;20037;-78
2023/08/20 05:07:20;;;;;;;64.90;61.00;;;21.80;99.90;;;;;;5013943;28;20049;-78
2023/08/20 05:09:46;;;;;;;113.72;107.38;;;21.70;99.90;;;;;;5014164;28;20030;-79
2023/08/20 05:12:12;;;;;;;101.43;95.88;;;21.70;99.90;;;;;;5013725;28;20061;-79
2023/08/20 05:14:38;;;;;;;42.30;39.58;;;21.70;99.90;;;;;;5013973;28;20030;-78
2023/08/20 05:17:04;;;;;;;38.58;35.50;;;21.80;99.90;;;;;;5013266;28;20045;-78
2023/08/20 05:19:30;;;;;;;46.17;43.00;;;21.90;99.90;;;;;;5014222;28;20034;-78
2023/08/20 05:21:58;;;;;;;62.42;58.75;;;21.90;99.90;;;;;;5013705;28;20479;-78
2023/08/20 05:24:25;;;;;;;96.53;91.05;;;22.00;99.90;;;;;;5014191;28;20395;-78
2023/08/20 05:27:07;;;;;;;57.22;53.67;;;22.00;99.90;;;;;;5013114;28;20034;-78
2023/08/20 05:29:33;;;;;;;59.13;55.67;;;21.90;99.90;;;;;;5013958;28;20038;-78
2023/08/20 05:31:59;;;;;;;47.17;44.20;;;22.00;99.90;;;;;;5013009;28;20041;-78
2023/08/20 05:34:26;;;;;;;37.05;34.38;;;21.90;99.90;;;;;;5013943;28;20037;-78
2023/08/20 05:36:52;;;;;;;41.00;38.30;;;22.00;99.90;;;;;;5013356;28;20471;-78
2023/08/20 05:39:18;;;;;;;64.13;60.55;;;22.00;99.90;;;;;;5013633;28;20045;-78
2023/08/20 05:41:44;;;;;;;47.20;44.13;;;22.00;99.90;;;;;;5013223;28;20034;-79
2023/08/20 05:44:10;;;;;;;109.43;103.30;;;21.90;99.90;;;;;;5012834;28;20026;-78
2023/08/20 05:46:36;;;;;;;67.07;62.90;;;21.90;99.90;;;;;;5012971;28;20038;-78
2023/08/20 05:49:02;;;;;;;74.80;70.38;;;21.90;99.90;;;;;;5013877;28;20037;-78
2023/08/20 05:51:28;;;;;;;89.93;84.60;;;21.90;99.90;;;;;;5018909;28;20046;-79
2023/08/20 05:53:55;;;;;;;109.18;103.03;;;21.80;99.90;;;;;;5013396;28;20030;-78
2023/08/20 05:56:21;;;;;;;170.43;161.60;;;21.80;99.90;;;;;;5012689;28;20034;-78
2023/08/20 05:58:47;;;;;;;75.05;70.43;;;21.90;99.90;;;;;;5013279;28;20033;-78
2023/08/20 06:01:13;;;;;;;57.30;53.70;;;21.90;99.90;;;;;;5012641;28;20034;-77
2023/08/20 06:03:39;;;;;;;55.78;52.08;;;21.90;99.90;;;;;;5013238;28;20034;-78
2023/08/20 06:06:05;;;;;;;59.75;56.33;;;22.00;99.90;;;;;;5012811;28;20026;-79
2023/08/20 06:08:31;;;;;;;80.95;76.13;;;22.00;99.90;;;;;;5013160;28;20026;-78
2023/08/20 06:10:58;;;;;;;59.70;56.30;;;22.10;99.90;;;;;;5012549;28;20049;-79
2023/08/20 06:13:24;;;;;;;63.83;60.13;;;22.10;99.90;;;;;;5013157;28;20026;-79
2023/08/20 06:15:50;;;;;;;41.40;38.60;;;22.10;99.90;;;;;;5012601;28;20037;-78
2023/08/20 06:18:16;;;;;;;63.55;59.78;;;22.20;99.90;;;;;;5013183;28;20026;-78
2023/08/20 06:20:42;;;;;;;64.00;60.13;;;22.30;99.90;;;;;;5012661;28;20034;-78
2023/08/20 06:23:08;;;;;;;76.70;72.07;;;22.30;99.90;;;;;;5013557;28;20367;-79
2023/08/20 06:25:34;;;;;;;78.68;73.97;;;22.30;99.90;;;;;;5012224;28;20029;-78
2023/08/20 06:28:00;;;;;;;31.08;28.75;;;22.30;99.90;;;;;;5013004;28;20372;-78
2023/08/20 06:30:26;;;;;;;36.00;33.28;;;22.20;99.90;;;;;;5012213;28;20029;-78
2023/08/20 06:32:52;;;;;;;46.53;43.22;;;22.10;99.90;;;;;;5012471;28;20157;-78
2023/08/20 06:35:18;;;;;;;41.03;38.35;;;22.10;99.90;;;;;;5012376;28;20037;-78
2023/08/20 06:37:44;;;;;;;33.35;30.73;;;22.40;99.90;;;;;;5013021;28;20029;-79
2023/08/20 06:40:11;;;;;;;34.92;32.10;;;22.60;99.90;;;;;;5012219;28;20036;-79
2023/08/20 06:42:37;;;;;;;61.25;57.20;;;22.80;99.90;;;;;;4993038;28;20423;-79
2023/08/20 06:45:03;;;;;;;50.53;47.17;;;22.80;99.90;;;;;;4992684;28;20037;-78
2023/08/20 06:47:29;;;;;;;43.13;40.03;;;22.70;99.90;;;;;;5010542;28;20090;-79
2023/08/20 06:49:56;;;;;;;45.58;42.60;;;22.70;99.90;;;;;;5012605;28;20026;-78
2023/08/20 06:52:22;;;;;;;45.15;42.08;;;22.50;99.90;;;;;;5010745;28;20069;-79
2023/08/20 06:54:48;;;;;;;48.05;45.05;;;22.50;99.90;;;;;;5014138;28;20022;-79
2023/08/20 06:57:14;;;;;;;52.60;49.22;;;22.50;99.90;;;;;;5016323;28;20072;-79
2023/08/20 06:59:42;;;;;;;47.20;44.05;;;22.60;99.90;;;;;;5016661;28;20033;-79
2023/08/20 07:02:08;;;;;;;55.05;51.45;;;22.80;99.90;;;;;;5016040;28;20082;-79
2023/08/20 07:04:34;;;;;;;58.55;55.20;;;23.00;99.90;;;;;;5016582;28;20064;-78
2023/08/20 07:07:00;;;;;;;68.55;64.25;;;23.20;99.90;;;;;;5016149;28;20379;-79
2023/08/20 07:09:26;;;;;;;72.60;68.18;;;23.20;99.90;;;;;;5014715;28;20038;-78
2023/08/20 07:11:52;;;;;;;81.20;76.65;;;23.20;99.90;;;;;;5015075;28;20057;-79
2023/08/20 07:14:18;;;;;;;99.47;94.38;;;23.20;99.90;;;;;;5016670;28;20049;-79
2023/08/20 07:16:44;;;;;;;98.88;93.35;;;23.30;99.90;;;;;;5014411;28;20034;-78
2023/08/20 07:19:11;;;;;;;100.25;94.70;;;23.40;99.90;;;;;;5016217;28;20022;-79
2023/08/20 07:21:37;;;;;;;118.80;112.20;;;23.50;99.90;;;;;;5015864;28;20062;-79
2023/08/20 07:24:03;;;;;;;111.93;105.97;;;23.70;99.90;;;;;;5015994;28;20041;-78
2023/08/20 07:26:29;;;;;;;92.88;87.63;;;23.90;99.90;;;;;;5015931;28;20033;-78
2023/08/20 07:28:59;;;;;;;108.53;102.25;;;24.00;99.90;;;;;;5014937;28;20399;-79
2023/08/20 07:31:26;;;;;;;107.18;101.40;;;23.90;99.90;;;;;;5015171;28;20049;-79
2023/08/20 07:33:52;;;;;;;98.78;93.35;;;24.00;99.90;;;;;;5015874;28;20026;-78
2023/08/20 07:36:19;;;;;;;75.60;71.32;;;24.00;99.90;;;;;;5015199;28;20036;-79
2023/08/20 07:38:45;;;;;;;99.38;94.00;;;24.10;99.90;;;;;;5016026;28;20038;-79
2023/08/20 07:41:12;;;;;;;95.78;90.85;;;24.20;99.90;;;;;;5015617;28;20574;-78
2023/08/20 07:43:38;;;;;;;88.05;82.95;;;24.20;99.90;;;;;;5015778;28;20030;-78
2023/08/20 07:46:05;;;;;;;85.20;80.45;;;24.20;99.90;;;;;;5013753;28;20620;-77
2023/08/20 07:48:31;;;;;;;91.25;86.32;;;24.30;99.90;;;;;;5015737;28;20034;-78
2023/08/20 07:50:57;;;;;;;89.80;84.75;;;24.50;99.90;;;;;;5014816;28;20021;-78
2023/08/20 07:53:23;;;;;;;88.35;83.57;;;24.70;99.90;;;;;;5015472;28;20053;-78
2023/08/20 07:55:49;;;;;;;93.18;87.93;;;24.90;99.90;;;;;;5014251;28;20387;-77
2023/08/20 07:58:15;;;;;;;79.20;74.65;;;25.10;99.90;;;;;;5015452;28;20034;-79
2023/08/20 08:00:42;;;;;;;134.18;127.07;;;25.00;99.90;;;;;;5014725;28;20041;-78
2023/08/20 08:03:09;;;;;;;101.13;95.75;;;25.00;99.90;;;;;;5015607;28;20026;-78
2023/08/20 08:05:36;;;;;;;119.72;113.07;;;25.10;99.90;;;;;;5014321;28;20045;-78
2023/08/20 08:08:02;;;;;;;124.13;117.43;;;25.00;99.90;;;;;;5015164;28;20041;-78
2023/08/20 08:10:29;;;;;;;97.10;91.95;;;24.90;99.90;;;;;;5015122;28;20025;-78
2023/08/20 08:12:55;;;;;;;93.63;88.63;;;25.10;99.90;;;;;;5015234;28;20479;-78
2023/08/20 08:15:21;;;;;;;100.32;94.60;;;25.20;99.90;;;;;;5014400;28;20061;-77
2023/08/20 08:17:47;;;;;;;106.00;100.28;;;25.10;99.90;;;;;;5015194;28;20030;-78
2023/08/20 08:20:13;;;;;;;92.25;87.28;;;25.20;99.90;;;;;;5014568;28;20064;-78
2023/08/20 08:22:40;;;;;;;98.50;93.13;;;25.30;99.90;;;;;;5015079;28;20025;-77
2023/08/20 08:25:06;;;;;;;91.85;86.90;;;25.20;99.90;;;;;;5015054;28;20039;-78
2023/08/20 08:27:32;;;;;;;101.97;96.60;;;25.30;99.90;;;;;;5014737;28;20360;-78
2023/08/20 08:29:58;;;;;;;104.72;99.18;;;25.50;99.90;;;;;;5014929;28;20030;-77
2023/08/20 08:32:24;;;;;;;106.85;101.15;;;25.80;99.90;;;;;;5014226;28;20078;-77
2023/08/20 08:34:50;;;;;;;106.82;100.95;;;25.90;99.90;;;;;;5014392;28;20037;-78
2023/08/20 08:37:16;;;;;;;102.25;97.15;;;26.10;99.90;;;;;;5014422;28;20345;-78
2023/08/20 08:39:43;;;;;;;83.55;79.18;;;26.30;99.90;;;;;;5014781;28;20106;-77
2023/08/20 08:42:09;;;;;;;116.00;109.88;;;26.10;99.90;;;;;;5014418;28;20045;-78
2023/08/20 08:44:36;;;;;;;96.90;91.63;;;26.20;99.90;;;;;;5013163;28;20395;-77
2023/08/20 08:47:03;;;;;;;91.45;86.25;;;26.30;99.90;;;;;;5012787;28;20068;-77
2023/08/20 08:49:30;;;;;;;140.60;133.32;;;26.30;99.90;;;;;;5012664;28;20030;-78
2023/08/20 08:51:57;;;;;;;91.50;86.75;;;26.30;99.90;;;;;;5013126;28;20046;-78
2023/08/20 08:54:23;;;;;;;122.68;116.30;;;26.60;99.90;;;;;;5013515;28;20487;-78
2023/08/20 08:56:50;;;;;;;132.50;125.60;;;26.80;99.90;;;;;;5014128;28;20038;-77
2023/08/20 08:59:16;;;;;;;70.93;67.15;;;26.80;99.90;;;;;;5014371;28;20033;-76
2023/08/20 09:01:42;;;;;;;85.35;80.82;;;26.50;99.50;;;;;;5013524;28;20042;-78
2023/08/20 09:04:08;;;;;;;87.75;83.15;;;26.40;99.90;;;;;;5014019;28;20033;-77
2023/08/20 09:06:47;;;;;;;83.10;78.80;;;26.30;99.60;;;;;;5014118;28;20041;-77
2023/08/20 09:09:14;;;;;;;82.30;77.95;;;26.30;99.20;;;;;;5014460;28;20045;-78
2023/08/20 09:11:40;;;;;;;86.90;82.18;;;26.30;99.10;;;;;;5013949;28;20046;-78
2023/08/20 09:14:06;;;;;;;100.40;95.05;;;26.30;99.80;;;;;;5014005;28;20033;-78
2023/08/20 09:16:32;;;;;;;67.07;63.50;;;26.40;99.90;;;;;;5013210;28;20368;-77
2023/08/20 09:19:01;;;;;;;73.07;69.32;;;26.60;99.20;;;;;;5012510;28;20046;-77
2023/08/20 09:21:30;;;;;;;66.70;62.97;;;26.40;99.00;;;;;;5013662;28;20038;-77
2023/08/20 09:23:59;;;;;;;73.07;69.18;;;26.40;98.70;;;;;;5012742;28;20038;-78
2023/08/20 09:26:26;;;;;;;73.10;69.18;;;26.40;98.60;;;;;;5013683;28;20495;-77
2023/08/20 09:28:54;;;;;;;73.30;69.60;;;26.40;99.00;;;;;;5014494;28;20046;-77
2023/08/20 09:31:20;;;;;;;80.55;76.30;;;26.50;98.50;;;;;;5012859;28;20042;-78
2023/08/20 09:33:53;;;;;;;80.80;76.60;;;26.60;98.60;;;;;;5013323;28;20033;-78
2023/08/20 09:36:28;;;;;;;86.40;81.28;;;26.70;98.20;;;;;;5013316;28;20033;-77
2023/08/20 09:38:54;;;;;;;81.82;77.53;;;26.80;99.00;;;;;;5012725;28;20484;-78
2023/08/20 09:41:20;;;;;;;78.22;73.93;;;27.10;98.80;;;;;;5013234;28;20045;-78
2023/08/20 09:43:46;;;;;;;78.57;74.30;;;27.40;98.20;;;;;;5013489;28;20403;-78
2023/08/20 09:46:12;;;;;;;82.43;77.97;;;27.40;97.70;;;;;;5011719;28;20057;-77
2023/08/20 09:48:39;;;;;;;90.82;86.03;;;27.40;98.20;;;;;;5012005;28;20022;-78
2023/08/20 09:51:07;;;;;;;97.65;92.68;;;27.40;98.40;;;;;;5012064;28;20040;-78
2023/08/20 09:53:50;;;;;;;95.88;91.03;;;27.40;98.50;;;;;;5012160;28;20054;-78
2023/08/20 09:56:43;;;;;;;75.40;71.40;;;27.70;99.20;;;;;;5011901;28;20029;-77
2023/08/20 09:59:09;;;;;;;112.30;106.60;;;27.90;98.10;;;;;;5011510;28;20042;-77
2023/08/20 10:01:35;;;;;;;91.55;86.80;;;28.00;98.70;;;;;;5011219;28;20033;-77
2023/08/20 10:04:01;;;;;;;92.97;88.05;;;28.00;97.80;;;;;;5013256;28;20037;-78
2023/08/20 10:06:27;;;;;;;100.03;94.78;;;27.70;97.90;;;;;;5012879;28;20395;-78
2023/08/20 10:08:53;;;;;;;90.65;85.72;;;27.40;98.50;;;;;;5011986;28;20110;-78
2023/08/20 10:11:19;;;;;;;97.03;91.97;;;27.50;98.50;;;;;;5011463;28;20052;-77
2023/08/20 10:13:45;;;;;;;111.78;105.97;;;27.70;99.00;;;;;;5013277;28;20034;-78
2023/08/20 10:16:13;;;;;;;117.93;111.93;;;27.80;98.90;;;;;;5010744;28;20080;-77
2023/08/20 10:18:39;;;;;;;88.40;83.78;;;28.10;99.50;;;;;;5013265;28;20046;-78
2023/08/20 10:21:07;;;;;;;81.28;76.57;;;28.40;98.70;;;;;;5012720;28;20030;-78
2023/08/20 10:23:33;;;;;;;105.97;100.47;;;28.50;98.30;;;;;;5013504;28;20398;-78
2023/08/20 10:26:10;;;;;;;85.40;81.05;;;28.70;98.50;;;;;;5011540;28;20041;-78
2023/08/20 10:28:36;;;;;;;76.15;72.20;;;28.70;97.50;;;;;;5012740;28;20029;-79
2023/08/20 10:31:07;;;;;;;59.92;56.72;;;28.60;97.10;;;;;;5011677;28;20034;-77
2023/08/20 10:33:49;;;;;;;72.05;68.35;;;28.60;96.90;;;;;;5012808;28;20402;-77
2023/08/20 10:36:22;;;;;;;63.00;59.50;;;28.70;96.70;;;;;;5012421;28;20045;-78
2023/08/20 10:38:49;;;;;;;51.45;48.58;;;28.90;96.70;;;;;;5012694;28;20048;-77
2023/08/20 10:41:18;;;;;;;54.85;51.95;;;28.90;95.50;;;;;;5012675;28;20045;-77
2023/08/20 10:43:51;;;;;;;52.97;50.17;;;28.90;94.70;;;;;;5012752;28;20102;-78
2023/08/20 10:46:18;;;;;;;56.10;53.05;;;29.00;95.20;;;;;;5011630;28;20030;-77
2023/08/20 10:48:51;;;;;;;52.88;50.13;;;29.00;95.00;;;;;;5012958;28;20064;-78
2023/08/20 10:51:27;;;;;;;57.72;54.65;;;29.20;94.70;;;;;;5012037;28;20029;-77
2023/08/20 10:54:05;;;;;;;55.55;52.65;;;29.40;95.00;;;;;;5012454;28;20034;-77
2023/08/20 10:56:44;;;;;;;55.95;53.05;;;29.50;95.30;;;;;;5012555;28;20121;-78
2023/08/20 10:59:16;;;;;;;57.83;54.88;;;29.50;94.20;;;;;;5012833;28;20041;-78
2023/08/20 11:01:46;;;;;;;53.47;50.58;;;29.50;94.80;;;;;;5010570;28;20037;-78
2023/08/20 11:04:14;;;;;;;57.15;54.17;;;29.50;94.30;;;;;;5012513;28;20041;-77
2023/08/20 11:06:40;;;;;;;61.45;58.25;;;29.50;94.50;;;;;;5010450;28;20034;-77
2023/08/20 11:09:07;;;;;;;63.90;60.42;;;29.40;94.90;;;;;;5011441;28;20498;-78
2023/08/20 11:11:33;;;;;;;53.22;50.33;;;29.40;95.30;;;;;;5011967;28;20033;-78
2023/08/20 11:14:13;;;;;;;75.25;71.28;;;29.50;94.90;;;;;;5012119;28;20030;-77
2023/08/20 11:16:40;;;;;;;55.28;52.42;;;29.50;95.30;;;;;;5011668;28;20407;-77
2023/08/20 11:19:08;;;;;;;56.78;53.65;;;29.70;94.70;;;;;;5012446;28;20040;-77
2023/08/20 11:21:38;;;;;;;61.97;58.45;;;29.80;95.20;;;;;;5010804;28;20511;-77
2023/08/20 11:24:04;;;;;;;65.38;61.92;;;30.00;95.20;;;;;;5012312;28;20029;-77
2023/08/20 11:26:30;;;;;;;52.50;49.60;;;30.00;94.80;;;;;;5011993;28;20033;-77
2023/08/20 11:28:56;;;;;;;52.08;49.33;;;30.00;93.80;;;;;;5012039;28;20391;-78
2023/08/20 11:31:23;;;;;;;53.42;50.42;;;29.70;93.60;;;;;;5011291;28;20034;-77
2023/08/20 11:33:52;;;;;;;83.43;79.25;;;29.70;93.70;;;;;;5011112;28;20399;-78
2023/08/20 11:36:19;;;;;;;54.40;51.53;;;29.60;94.80;;;;;;5010956;28;20026;-77
2023/08/20 11:38:55;;;;;;;54.85;52.05;;;29.90;94.50;;;;;;5010773;28;20045;-78
2023/08/20 11:41:21;;;;;;;76.60;72.80;;;30.00;93.80;;;;;;5013021;28;20057;-77
2023/08/20 11:43:51;;;;;;;54.72;51.97;;;30.20;94.40;;;;;;5014437;28;20078;-78
2023/08/20 11:46:21;;;;;;;59.67;56.63;;;30.20;94.00;;;;;;5013948;28;20042;-77
2023/08/20 11:49:17;;;;;;;55.30;52.58;;;30.30;94.20;;;;;;5015679;28;20375;-77
2023/08/20 11:51:49;;;;;;;56.95;53.85;;;30.40;93.60;;;;;;4999604;28;20049;-77
2023/08/20 11:54:16;;;;;;;55.17;52.33;;;30.40;93.50;;;;;;5015683;28;20038;-77
2023/08/20 11:56:47;;;;;;;54.65;51.75;;;30.50;93.30;;;;;;5015230;28;20045;-78
2023/08/20 11:59:14;;;;;;;53.53;50.67;;;30.60;93.60;;;;;;5015290;28;20475;-77
2023/08/20 12:01:40;;;;;;;54.72;51.80;;;30.50;92.30;;;;;;5014826;28;20042;-78
2023/08/20 12:04:07;;;;;;;51.38;48.75;;;30.50;93.00;;;;;;5015947;28;20041;-77
2023/08/20 12:06:34;;;;;;;54.92;51.90;;;30.70;93.40;;;;;;5015392;28;20479;-77
2023/08/20 12:09:00;;;;;;;54.42;51.63;;;30.60;92.60;;;;;;5015658;28;20407;-77
2023/08/20 12:11:27;;;;;;;60.17;56.97;;;30.80;93.30;;;;;;5013862;28;20041;-78
2023/08/20 12:13:53;;;;;;;56.60;53.58;;;30.80;93.70;;;;;;5014932;28;20038;-77
2023/08/20 12:16:22;;;;;;;55.28;52.28;;;31.00;92.70;;;;;;5013564;28;20106;-77
2023/08/20 12:18:48;;;;;;;56.88;53.88;;;30.60;92.80;;;;;;5015072;28;20050;-77
2023/08/20 12:21:14;;;;;;;56.10;53.20;;;30.30;92.60;;;;;;5014922;28;20037;-75
2023/08/20 12:23:40;;;;;;;60.53;57.33;;;30.30;93.10;;;;;;5015008;28;20041;-77